sensor_id;sensor_type;location;lat;lon;timestamp;pressure;altitude;pressure_sealevel;temperature;humidity
69411;BME280;56604;48.652;9.194;2023-05-15T00:02:05;95844.59;;;9.34;96.40
69411;BME280;56604;48.652;9.194;2023-05-15T00:04:31;95849.63;;;9.41;96.04
69411;BME280;56604;48.652;9.194;2023-05-15T00:06:56;95843.06;;;9.38;95.13
69411;BME280;56604;48.652;9.194;2023-05-15T00:09:22;95846.19;;;9.35;95.40
69411;BME280;56604;48.652;9.194;2023-05-15T00:11:47;95846.19;;;9.35;94.81
69411;BME280;56604;48.652;9.194;2023-05-15T00:14:12;95845.34;;;9.30;94.86
69411;BME280;56604;48.652;9.194;2023-05-15T00:16:38;95845.09;;;9.31;95.21
69411;BME280;56604;48.652;9.194;2023-05-15T00:19:03;95845.78;;;9.21;94.87
69411;BME280;56604;48.652;9.194;2023-05-15T00:21:28;95847.09;;;9.19;95.81
69411;BME280;56604;48.652;9.194;2023-05-15T00:23:54;95838.19;;;9.20;95.95
69411;BME280;56604;48.652;9.194;2023-05-15T00:26:22;95840.56;;;9.21;96.43
69411;BME280;56604;48.652;9.194;2023-05-15T00:28:47;95839.75;;;9.21;95.09
69411;BME280;56604;48.652;9.194;2023-05-15T00:31:12;95845.50;;;9.18;95.80
69411;BME280;56604;48.652;9.194;2023-05-15T00:33:38;95833.47;;;9.22;95.68
69411;BME280;56604;48.652;9.194;2023-05-15T00:36:04;95831.91;;;9.21;95.99
69411;BME280;56604;48.652;9.194;2023-05-15T00:38:30;95835.03;;;9.18;96.21
69411;BME280;56604;48.652;9.194;2023-05-15T00:40:58;95832.41;;;9.18;96.21
69411;BME280;56604;48.652;9.194;2023-05-15T00:43:24;95819.78;;;9.15;96.16
69411;BME280;56604;48.652;9.194;2023-05-15T00:45:51;95826.16;;;9.24;96.12
69411;BME280;56604;48.652;9.194;2023-05-15T00:48:16;95825.13;;;9.25;95.82
69411;BME280;56604;48.652;9.194;2023-05-15T00:50:43;95824.63;;;9.33;95.56
69411;BME280;56604;48.652;9.194;2023-05-15T00:53:09;95817.78;;;9.27;96.31
69411;BME280;56604;48.652;9.194;2023-05-15T00:55:35;95818.09;;;9.31;95.95
69411;BME280;56604;48.652;9.194;2023-05-15T00:58:02;95817.81;;;9.32;95.88
69411;BME280;56604;48.652;9.194;2023-05-15T01:00:29;95820.50;;;9.37;95.98
69411;BME280;56604;48.652;9.194;2023-05-15T01:02:55;95811.06;;;9.36;95.38
69411;BME280;56604;48.652;9.194;2023-05-15T01:05:20;95809.53;;;9.45;94.96
69411;BME280;56604;48.652;9.194;2023-05-15T01:07:55;95809.00;;;9.43;94.64
69411;BME280;56604;48.652;9.194;2023-05-15T01:10:25;95811.59;;;9.43;94.99
69411;BME280;56604;48.652;9.194;2023-05-15T01:12:52;95805.91;;;9.52;95.01
69411;BME280;56604;48.652;9.194;2023-05-15T01:15:18;95800.69;;;9.57;94.07
69411;BME280;56604;48.652;9.194;2023-05-15T01:17:44;95805.94;;;9.62;94.63
69411;BME280;56604;48.652;9.194;2023-05-15T01:20:10;95808.38;;;9.68;94.14
69411;BME280;56604;48.652;9.194;2023-05-15T01:23:04;95809.72;;;9.76;93.64
69411;BME280;56604;48.652;9.194;2023-05-15T01:28:02;95813.41;;;9.80;92.04
69411;BME280;56604;48.652;9.194;2023-05-15T01:30:46;95808.72;;;9.82;92.27
69411;BME280;56604;48.652;9.194;2023-05-15T01:33:28;95816.59;;;9.87;91.38
69411;BME280;56604;48.652;9.194;2023-05-15T01:38:47;95826.78;;;9.79;91.85
69411;BME280;56604;48.652;9.194;2023-05-15T01:41:28;95825.41;;;9.66;91.68
69411;BME280;56604;48.652;9.194;2023-05-15T01:44:02;95823.81;;;9.60;91.57
69411;BME280;56604;48.652;9.194;2023-05-15T01:46:30;95819.88;;;9.62;92.37
69411;BME280;56604;48.652;9.194;2023-05-15T01:48:57;95819.56;;;9.59;92.57
69411;BME280;56604;48.652;9.194;2023-05-15T01:51:23;95813.25;;;9.55;92.38
69411;BME280;56604;48.652;9.194;2023-05-15T01:53:50;95821.19;;;9.60;91.89
69411;BME280;56604;48.652;9.194;2023-05-15T01:56:17;95821.13;;;9.55;91.95
69411;BME280;56604;48.652;9.194;2023-05-15T01:58:44;95818.50;;;9.55;92.67
69411;BME280;56604;48.652;9.194;2023-05-15T02:01:12;95824.31;;;9.57;92.43
69411;BME280;56604;48.652;9.194;2023-05-15T02:03:38;95812.25;;;9.61;92.48
69411;BME280;56604;48.652;9.194;2023-05-15T02:06:05;95820.19;;;9.71;92.03
69411;BME280;56604;48.652;9.194;2023-05-15T02:08:31;95824.38;;;9.72;91.55
69411;BME280;56604;48.652;9.194;2023-05-15T02:10:58;95817.84;;;9.75;91.70
69411;BME280;56604;48.652;9.194;2023-05-15T02:13:25;95814.44;;;9.74;91.68
69411;BME280;56604;48.652;9.194;2023-05-15T02:15:50;95821.84;;;9.82;91.18
69411;BME280;56604;48.652;9.194;2023-05-15T02:18:16;95823.38;;;9.78;91.32
69411;BME280;56604;48.652;9.194;2023-05-15T02:20:41;95814.16;;;9.76;92.49
69411;BME280;56604;48.652;9.194;2023-05-15T02:23:07;95819.72;;;9.79;91.77
69411;BME280;56604;48.652;9.194;2023-05-15T02:25:40;95823.13;;;9.80;91.98
69411;BME280;56604;48.652;9.194;2023-05-15T02:28:16;95819.19;;;9.77;91.96
69411;BME280;56604;48.652;9.194;2023-05-15T02:30:57;95822.09;;;9.81;91.59
69411;BME280;56604;48.652;9.194;2023-05-15T02:36:08;95822.59;;;9.78;92.13
69411;BME280;56604;48.652;9.194;2023-05-15T02:38:41;95828.13;;;9.81;91.85
69411;BME280;56604;48.652;9.194;2023-05-15T02:41:09;95821.28;;;9.80;91.71
69411;BME280;56604;48.652;9.194;2023-05-15T02:43:35;95818.59;;;9.70;92.02
69411;BME280;56604;48.652;9.194;2023-05-15T02:46:02;95817.00;;;9.64;92.65
69411;BME280;56604;48.652;9.194;2023-05-15T02:48:28;95815.41;;;9.63;92.10
69411;BME280;56604;48.652;9.194;2023-05-15T02:50:53;95816.44;;;9.57;92.07
69411;BME280;56604;48.652;9.194;2023-05-15T02:53:19;95816.44;;;9.57;92.50
69411;BME280;56604;48.652;9.194;2023-05-15T02:55:44;95814.00;;;9.50;92.74
69411;BME280;56604;48.652;9.194;2023-05-15T02:58:10;95815.88;;;9.55;92.63
69411;BME280;56604;48.652;9.194;2023-05-15T03:00:35;95819.81;;;9.52;91.55
69411;BME280;56604;48.652;9.194;2023-05-15T03:03:00;95819.53;;;9.49;91.95
69411;BME280;56604;48.652;9.194;2023-05-15T03:05:26;95827.94;;;9.51;92.38
69411;BME280;56604;48.652;9.194;2023-05-15T03:07:51;95815.81;;;9.44;92.18
69411;BME280;56604;48.652;9.194;2023-05-15T03:10:16;95820.53;;;9.48;91.58
69411;BME280;56604;48.652;9.194;2023-05-15T03:12:42;95812.16;;;9.45;91.86
69411;BME280;56604;48.652;9.194;2023-05-15T03:15:08;95817.41;;;9.45;92.39
69411;BME280;56604;48.652;9.194;2023-05-15T03:17:33;95811.59;;;9.43;91.69
69411;BME280;56604;48.652;9.194;2023-05-15T03:19:58;95810.56;;;9.44;92.96
69411;BME280;56604;48.652;9.194;2023-05-15T03:22:24;95807.94;;;9.39;92.96
69411;BME280;56604;48.652;9.194;2023-05-15T03:24:50;95807.94;;;9.44;92.25
69411;BME280;56604;48.652;9.194;2023-05-15T03:27:15;95810.88;;;9.48;92.06
69411;BME280;56604;48.652;9.194;2023-05-15T03:29:41;95811.38;;;9.50;91.96
69411;BME280;56604;48.652;9.194;2023-05-15T03:32:07;95806.44;;;9.54;92.43
69411;BME280;56604;48.652;9.194;2023-05-15T03:34:32;95804.34;;;9.56;92.09
69411;BME280;56604;48.652;9.194;2023-05-15T03:36:57;95814.38;;;9.64;91.59
69411;BME280;56604;48.652;9.194;2023-05-15T03:39:23;95813.31;;;9.60;92.13
69411;BME280;56604;48.652;9.194;2023-05-15T03:41:48;95811.19;;;9.62;91.74
69411;BME280;56604;48.652;9.194;2023-05-15T03:44:13;95811.47;;;9.60;92.17
69411;BME280;56604;48.652;9.194;2023-05-15T03:46:39;95814.41;;;9.69;91.73
69411;BME280;56604;48.652;9.194;2023-05-15T03:49:04;95814.91;;;9.66;91.44
69411;BME280;56604;48.652;9.194;2023-05-15T03:51:29;95808.91;;;9.71;92.41
69411;BME280;56604;48.652;9.194;2023-05-15T03:53:55;95811.53;;;9.71;91.58
69411;BME280;56604;48.652;9.194;2023-05-15T03:56:20;95811.84;;;9.79;91.56
69411;BME280;56604;48.652;9.194;2023-05-15T03:58:45;95810.81;;;9.85;90.75
69411;BME280;56604;48.652;9.194;2023-05-15T04:01:11;95804.59;;;9.97;90.58
69411;BME280;56604;48.652;9.194;2023-05-15T04:03:36;95809.31;;;10.00;90.87
69411;BME280;56604;48.652;9.194;2023-05-15T04:06:01;95801.44;;;10.00;90.75
69411;BME280;56604;48.652;9.194;2023-05-15T04:08:27;95805.19;;;10.14;90.45
69411;BME280;56604;48.652;9.194;2023-05-15T04:10:52;95810.22;;;10.26;89.56
69411;BME280;56604;48.652;9.194;2023-05-15T04:13:18;95809.25;;;10.37;88.50
69411;BME280;56604;48.652;9.194;2023-05-15T04:15:43;95809.63;;;10.82;87.75
69411;BME280;56604;48.652;9.194;2023-05-15T04:18:08;95813.84;;;11.08;85.87
69411;BME280;56604;48.652;9.194;2023-05-15T04:20:34;95812.25;;;11.43;83.95
69411;BME280;56604;48.652;9.194;2023-05-15T04:22:59;95804.56;;;11.98;81.56
69411;BME280;56604;48.652;9.194;2023-05-15T04:25:25;95809.00;;;12.12;81.21
69411;BME280;56604;48.652;9.194;2023-05-15T04:27:51;95804.63;;;12.52;79.69
69411;BME280;56604;48.652;9.194;2023-05-15T04:30:16;95802.94;;;13.06;76.80
69411;BME280;56604;48.652;9.194;2023-05-15T04:32:42;95810.44;;;13.33;75.49
69411;BME280;56604;48.652;9.194;2023-05-15T04:35:08;95812.06;;;13.87;73.62
69411;BME280;56604;48.652;9.194;2023-05-15T04:37:36;95813.72;;;14.50;70.49
69411;BME280;56604;48.652;9.194;2023-05-15T04:40:02;95807.03;;;14.96;69.00
69411;BME280;56604;48.652;9.194;2023-05-15T04:42:28;95803.31;;;15.48;67.33
69411;BME280;56604;48.652;9.194;2023-05-15T04:44:53;95806.91;;;15.39;67.10
69411;BME280;56604;48.652;9.194;2023-05-15T04:47:19;95806.47;;;15.64;65.46
69411;BME280;56604;48.652;9.194;2023-05-15T04:49:44;95810.75;;;15.93;64.46
69411;BME280;56604;48.652;9.194;2023-05-15T04:52:11;95814.31;;;15.88;64.99
69411;BME280;56604;48.652;9.194;2023-05-15T04:54:37;95809.78;;;16.16;64.17
69411;BME280;56604;48.652;9.194;2023-05-15T04:57:02;95817.16;;;15.92;64.09
69411;BME280;56604;48.652;9.194;2023-05-15T04:59:27;95817.38;;;15.63;64.69
69411;BME280;56604;48.652;9.194;2023-05-15T05:01:53;95820.34;;;15.10;67.19
69411;BME280;56604;48.652;9.194;2023-05-15T05:04:18;95824.69;;;14.81;68.08
69411;BME280;56604;48.652;9.194;2023-05-15T05:06:44;95828.78;;;14.50;69.57
69411;BME280;56604;48.652;9.194;2023-05-15T05:09:10;95836.75;;;14.02;70.89
69411;BME280;56604;48.652;9.194;2023-05-15T05:11:35;95833.44;;;13.62;72.80
69411;BME280;56604;48.652;9.194;2023-05-15T05:14:03;95838.91;;;13.70;73.55
69411;BME280;56604;48.652;9.194;2023-05-15T05:16:28;95838.16;;;13.65;73.52
69411;BME280;56604;48.652;9.194;2023-05-15T05:18:53;95842.38;;;13.32;74.15
69411;BME280;56604;48.652;9.194;2023-05-15T05:21:19;95844.38;;;13.05;77.07
69411;BME280;56604;48.652;9.194;2023-05-15T05:23:44;95847.38;;;13.38;75.85
69411;BME280;56604;48.652;9.194;2023-05-15T05:26:11;95851.13;;;13.61;74.06
69411;BME280;56604;48.652;9.194;2023-05-15T05:28:36;95848.78;;;13.55;73.87
69411;BME280;56604;48.652;9.194;2023-05-15T05:31:02;95849.75;;;13.69;73.80
69411;BME280;56604;48.652;9.194;2023-05-15T05:33:28;95854.09;;;13.84;73.20
69411;BME280;56604;48.652;9.194;2023-05-15T05:35:53;95849.28;;;13.62;74.32
69411;BME280;56604;48.652;9.194;2023-05-15T05:38:19;95855.06;;;13.64;74.32
69411;BME280;56604;48.652;9.194;2023-05-15T05:40:45;95851.03;;;14.01;72.73
69411;BME280;56604;48.652;9.194;2023-05-15T05:43:10;95853.56;;;14.11;72.27
69411;BME280;56604;48.652;9.194;2023-05-15T05:45:35;95851.84;;;14.68;70.98
69411;BME280;56604;48.652;9.194;2023-05-15T05:48:01;95852.72;;;14.39;70.33
69411;BME280;56604;48.652;9.194;2023-05-15T05:50:26;95849.38;;;14.96;69.37
69411;BME280;56604;48.652;9.194;2023-05-15T05:52:51;95847.78;;;15.33;68.37
69411;BME280;56604;48.652;9.194;2023-05-15T05:55:17;95845.19;;;15.46;67.16
69411;BME280;56604;48.652;9.194;2023-05-15T05:57:42;95860.19;;;15.70;66.56
69411;BME280;56604;48.652;9.194;2023-05-15T06:00:08;95852.44;;;16.20;65.51
69411;BME280;56604;48.652;9.194;2023-05-15T06:02:35;95846.72;;;16.54;64.59
69411;BME280;56604;48.652;9.194;2023-05-15T06:05:01;95852.63;;;16.51;64.43
69411;BME280;56604;48.652;9.194;2023-05-15T06:07:27;95849.78;;;16.06;64.82
69411;BME280;56604;48.652;9.194;2023-05-15T06:09:52;95853.50;;;16.05;66.61
69411;BME280;56604;48.652;9.194;2023-05-15T06:12:17;95854.19;;;16.52;64.92
69411;BME280;56604;48.652;9.194;2023-05-15T06:14:43;95849.22;;;17.01;64.24
69411;BME280;56604;48.652;9.194;2023-05-15T06:17:08;95860.34;;;17.03;62.70
69411;BME280;56604;48.652;9.194;2023-05-15T06:19:34;95851.97;;;17.77;60.64
69411;BME280;56604;48.652;9.194;2023-05-15T06:21:59;95853.69;;;17.50;60.87
69411;BME280;56604;48.652;9.194;2023-05-15T06:24:24;95851.00;;;17.73;60.64
69411;BME280;56604;48.652;9.194;2023-05-15T06:26:50;95852.69;;;17.69;60.03
69411;BME280;56604;48.652;9.194;2023-05-15T06:29:15;95854.41;;;17.87;60.21
69411;BME280;56604;48.652;9.194;2023-05-15T06:31:40;95846.56;;;17.60;59.60
69411;BME280;56604;48.652;9.194;2023-05-15T06:34:05;95845.44;;;17.61;60.92
69411;BME280;56604;48.652;9.194;2023-05-15T06:36:31;95849.47;;;19.09;57.03
69411;BME280;56604;48.652;9.194;2023-05-15T06:38:56;95851.63;;;18.90;55.87
69411;BME280;56604;48.652;9.194;2023-05-15T06:41:21;95850.53;;;20.63;53.34
69411;BME280;56604;48.652;9.194;2023-05-15T06:43:46;95854.66;;;21.32;50.71
69411;BME280;56604;48.652;9.194;2023-05-15T06:46:12;95851.66;;;21.13;49.70
69411;BME280;56604;48.652;9.194;2023-05-15T06:48:40;95853.75;;;20.77;50.68
69411;BME280;56604;48.652;9.194;2023-05-15T06:51:05;95854.91;;;20.97;50.53
69411;BME280;56604;48.652;9.194;2023-05-15T06:53:30;95860.88;;;20.73;51.23
69411;BME280;56604;48.652;9.194;2023-05-15T06:55:56;95866.69;;;20.96;50.93
69411;BME280;56604;48.652;9.194;2023-05-15T06:58:21;95871.09;;;19.68;52.42
69411;BME280;56604;48.652;9.194;2023-05-15T07:00:47;95856.13;;;20.79;51.95
69411;BME280;56604;48.652;9.194;2023-05-15T07:03:12;95857.81;;;22.00;48.66
69411;BME280;56604;48.652;9.194;2023-05-15T07:05:38;95863.28;;;23.27;45.67
69411;BME280;56604;48.652;9.194;2023-05-15T07:08:04;95861.06;;;23.17;45.41
69411;BME280;56604;48.652;9.194;2023-05-15T07:10:29;95865.53;;;24.25;43.19
69411;BME280;56604;48.652;9.194;2023-05-15T07:12:55;95858.66;;;23.40;44.72
69411;BME280;56604;48.652;9.194;2023-05-15T07:15:20;95859.41;;;23.81;44.89
69411;BME280;56604;48.652;9.194;2023-05-15T07:17:45;95857.81;;;24.55;42.67
69411;BME280;56604;48.652;9.194;2023-05-15T07:20:11;95855.09;;;24.87;42.59
69411;BME280;56604;48.652;9.194;2023-05-15T07:22:37;95854.59;;;24.18;42.51
69411;BME280;56604;48.652;9.194;2023-05-15T07:25:03;95852.25;;;24.00;42.77
69411;BME280;56604;48.652;9.194;2023-05-15T07:27:28;95859.09;;;25.67;40.81
69411;BME280;56604;48.652;9.194;2023-05-15T07:29:54;95862.50;;;25.09;40.60
69411;BME280;56604;48.652;9.194;2023-05-15T07:32:19;95867.09;;;25.09;42.62
69411;BME280;56604;48.652;9.194;2023-05-15T07:34:44;95857.28;;;25.94;39.96
69411;BME280;56604;48.652;9.194;2023-05-15T07:37:10;95863.41;;;24.98;40.34
69411;BME280;56604;48.652;9.194;2023-05-15T07:39:35;95871.97;;;23.76;43.11
69411;BME280;56604;48.652;9.194;2023-05-15T07:42:00;95865.47;;;22.97;44.58
69411;BME280;56604;48.652;9.194;2023-05-15T07:44:25;95865.19;;;20.86;50.49
69411;BME280;56604;48.652;9.194;2023-05-15T07:46:51;95864.03;;;19.29;54.78
69411;BME280;56604;48.652;9.194;2023-05-15T07:49:16;95864.81;;;18.95;57.97
69411;BME280;56604;48.652;9.194;2023-05-15T07:51:41;95857.78;;;20.62;53.43
69411;BME280;56604;48.652;9.194;2023-05-15T07:54:07;95855.22;;;19.63;54.71
69411;BME280;56604;48.652;9.194;2023-05-15T07:56:32;95850.53;;;21.89;49.43
69411;BME280;56604;48.652;9.194;2023-05-15T07:58:57;95849.88;;;21.59;48.43
69411;BME280;56604;48.652;9.194;2023-05-15T08:01:23;95849.94;;;21.08;50.96
69411;BME280;56604;48.652;9.194;2023-05-15T08:03:48;95853.88;;;21.52;48.98
69411;BME280;56604;48.652;9.194;2023-05-15T08:06:13;95852.63;;;21.08;50.35
69411;BME280;56604;48.652;9.194;2023-05-15T08:08:40;95848.66;;;22.01;47.97
69411;BME280;56604;48.652;9.194;2023-05-15T08:11:05;95851.63;;;22.33;45.19
69411;BME280;56604;48.652;9.194;2023-05-15T08:13:30;95841.09;;;23.70;43.31
69411;BME280;56604;48.652;9.194;2023-05-15T08:15:56;95852.09;;;23.65;41.73
69411;BME280;56604;48.652;9.194;2023-05-15T08:18:21;95855.69;;;21.19;46.91
69411;BME280;56604;48.652;9.194;2023-05-15T08:20:46;95844.25;;;22.18;45.43
69411;BME280;56604;48.652;9.194;2023-05-15T08:23:12;95850.72;;;22.54;43.03
69411;BME280;56604;48.652;9.194;2023-05-15T08:25:37;95844.66;;;22.08;46.33
69411;BME280;56604;48.652;9.194;2023-05-15T08:28:03;95842.59;;;21.80;44.99
69411;BME280;56604;48.652;9.194;2023-05-15T08:30:28;95841.84;;;22.04;44.16
69411;BME280;56604;48.652;9.194;2023-05-15T08:32:54;95844.34;;;21.76;45.36
69411;BME280;56604;48.652;9.194;2023-05-15T08:35:19;95848.28;;;20.74;49.55
69411;BME280;56604;48.652;9.194;2023-05-15T08:37:44;95844.56;;;21.71;46.82
69411;BME280;56604;48.652;9.194;2023-05-15T08:40:10;95836.69;;;22.20;49.16
69411;BME280;56604;48.652;9.194;2023-05-15T08:45:01;95830.69;;;24.29;39.70
69411;BME280;56604;48.652;9.194;2023-05-15T08:47:33;95839.38;;;24.89;40.73
69411;BME280;56604;48.652;9.194;2023-05-15T08:50:13;95832.41;;;23.33;42.08
69411;BME280;56604;48.652;9.194;2023-05-15T08:52:46;95843.97;;;21.32;44.75
69411;BME280;56604;48.652;9.194;2023-05-15T08:55:13;95840.78;;;19.90;47.42
69411;BME280;56604;48.652;9.194;2023-05-15T08:57:39;95833.66;;;19.13;49.86
69411;BME280;56604;48.652;9.194;2023-05-15T09:00:06;95831.28;;;19.28;51.55
69411;BME280;56604;48.652;9.194;2023-05-15T09:02:37;95827.91;;;20.90;49.22
69411;BME280;56604;48.652;9.194;2023-05-15T09:05:03;95820.16;;;22.18;46.55
69411;BME280;56604;48.652;9.194;2023-05-15T09:07:29;95818.81;;;22.49;44.39
69411;BME280;56604;48.652;9.194;2023-05-15T09:09:56;95824.56;;;22.14;42.13
69411;BME280;56604;48.652;9.194;2023-05-15T09:12:23;95816.81;;;22.58;43.50
69411;BME280;56604;48.652;9.194;2023-05-15T09:14:48;95823.03;;;22.62;41.78
69411;BME280;56604;48.652;9.194;2023-05-15T09:17:14;95824.84;;;22.58;44.60
69411;BME280;56604;48.652;9.194;2023-05-15T09:19:41;95819.88;;;22.84;43.16
69411;BME280;56604;48.652;9.194;2023-05-15T09:22:17;95817.81;;;22.53;42.16
69411;BME280;56604;48.652;9.194;2023-05-15T09:24:47;95816.22;;;22.15;44.65
69411;BME280;56604;48.652;9.194;2023-05-15T09:27:13;95814.78;;;22.30;41.85
69411;BME280;56604;48.652;9.194;2023-05-15T09:29:38;95805.22;;;22.29;41.41
69411;BME280;56604;48.652;9.194;2023-05-15T09:32:08;95804.56;;;21.41;45.50
69411;BME280;56604;48.652;9.194;2023-05-15T09:34:36;95811.88;;;20.01;46.16
69411;BME280;56604;48.652;9.194;2023-05-15T09:37:03;95801.50;;;20.67;46.21
69411;BME280;56604;48.652;9.194;2023-05-15T09:39:29;95797.44;;;21.45;45.83
69411;BME280;56604;48.652;9.194;2023-05-15T09:42:14;95796.56;;;20.78;44.84
69411;BME280;56604;48.652;9.194;2023-05-15T09:44:44;95799.09;;;20.75;46.55
69411;BME280;56604;48.652;9.194;2023-05-15T09:47:11;95797.22;;;20.96;46.26
69411;BME280;56604;48.652;9.194;2023-05-15T09:49:37;95790.09;;;20.79;45.97
69411;BME280;56604;48.652;9.194;2023-05-15T09:52:06;95790.97;;;20.92;45.67
69411;BME280;56604;48.652;9.194;2023-05-15T09:54:32;95799.59;;;21.31;45.86
69411;BME280;56604;48.652;9.194;2023-05-15T09:57:09;95800.22;;;20.95;45.75
69411;BME280;56604;48.652;9.194;2023-05-15T09:59:35;95808.22;;;20.44;46.88
69411;BME280;56604;48.652;9.194;2023-05-15T10:02:06;95804.53;;;20.57;46.66
69411;BME280;56604;48.652;9.194;2023-05-15T10:04:35;95815.69;;;20.89;53.87
69411;BME280;56604;48.652;9.194;2023-05-15T10:07:00;95817.22;;;20.01;60.04
69411;BME280;56604;48.652;9.194;2023-05-15T10:09:29;95808.97;;;19.76;62.20
69411;BME280;56604;48.652;9.194;2023-05-15T10:11:55;95800.50;;;19.66;61.24
69411;BME280;56604;48.652;9.194;2023-05-15T10:14:23;95799.25;;;19.46;60.16
69411;BME280;56604;48.652;9.194;2023-05-15T10:16:49;95803.09;;;19.10;61.79
69411;BME280;56604;48.652;9.194;2023-05-15T10:19:17;95796.63;;;19.20;62.89
69411;BME280;56604;48.652;9.194;2023-05-15T10:21:44;95788.00;;;19.31;64.74
69411;BME280;56604;48.652;9.194;2023-05-15T10:24:10;95785.34;;;19.31;63.91
69411;BME280;56604;48.652;9.194;2023-05-15T10:26:41;95778.22;;;19.70;62.40
69411;BME280;56604;48.652;9.194;2023-05-15T10:29:11;95779.94;;;20.13;63.59
69411;BME280;56604;48.652;9.194;2023-05-15T10:31:38;95771.66;;;20.65;63.57
69411;BME280;56604;48.652;9.194;2023-05-15T10:34:04;95766.72;;;21.30;60.60
69411;BME280;56604;48.652;9.194;2023-05-15T10:36:34;95770.66;;;21.78;47.95
69411;BME280;56604;48.652;9.194;2023-05-15T10:39:01;95769.41;;;21.64;51.39
69411;BME280;56604;48.652;9.194;2023-05-15T10:41:32;95771.34;;;20.88;49.64
69411;BME280;56604;48.652;9.194;2023-05-15T10:43:59;95765.13;;;20.25;52.35
69411;BME280;56604;48.652;9.194;2023-05-15T10:46:25;95762.63;;;20.19;52.26
69411;BME280;56604;48.652;9.194;2023-05-15T10:48:51;95760.41;;;19.92;50.60
69411;BME280;56604;48.652;9.194;2023-05-15T10:51:24;95764.03;;;19.23;50.80
69411;BME280;56604;48.652;9.194;2023-05-15T10:53:50;95760.94;;;19.76;52.15
69411;BME280;56604;48.652;9.194;2023-05-15T10:56:16;95758.03;;;20.29;50.02
69411;BME280;56604;48.652;9.194;2023-05-15T10:58:49;95757.81;;;20.13;48.34
69411;BME280;56604;48.652;9.194;2023-05-15T11:01:31;95762.53;;;20.37;50.72
69411;BME280;56604;48.652;9.194;2023-05-15T11:04:09;95759.03;;;20.45;55.97
69411;BME280;56604;48.652;9.194;2023-05-15T11:06:36;95756.72;;;20.35;58.19
69411;BME280;56604;48.652;9.194;2023-05-15T11:11:52;95760.06;;;20.32;56.70
69411;BME280;56604;48.652;9.194;2023-05-15T11:14:20;95750.38;;;20.78;56.69
69411;BME280;56604;48.652;9.194;2023-05-15T11:27:43;95736.38;;;20.51;55.74
69411;BME280;56604;48.652;9.194;2023-05-15T11:30:13;95729.69;;;20.15;56.60
69411;BME280;56604;48.652;9.194;2023-05-15T11:37:54;95727.56;;;20.30;54.45
69411;BME280;56604;48.652;9.194;2023-05-15T11:43:04;95721.97;;;19.93;52.67
69411;BME280;56604;48.652;9.194;2023-05-15T11:45:36;95715.06;;;20.72;53.47
69411;BME280;56604;48.652;9.194;2023-05-15T11:48:04;95716.56;;;20.94;57.17
69411;BME280;56604;48.652;9.194;2023-05-15T11:50:31;95712.56;;;21.67;54.15
69411;BME280;56604;48.652;9.194;2023-05-15T11:53:01;95723.63;;;21.32;49.45
69411;BME280;56604;48.652;9.194;2023-05-15T11:55:30;95719.66;;;21.38;49.06
69411;BME280;56604;48.652;9.194;2023-05-15T11:57:56;95721.22;;;21.39;41.10
69411;BME280;56604;48.652;9.194;2023-05-15T12:00:21;95725.50;;;21.31;41.21
69411;BME280;56604;48.652;9.194;2023-05-15T12:02:46;95716.78;;;21.68;41.31
69411;BME280;56604;48.652;9.194;2023-05-15T12:05:12;95711.50;;;21.01;44.27
69411;BME280;56604;48.652;9.194;2023-05-15T12:07:39;95715.09;;;20.84;45.61
69411;BME280;56604;48.652;9.194;2023-05-15T12:10:06;95709.69;;;20.93;44.09
69411;BME280;56604;48.652;9.194;2023-05-15T12:12:34;95720.00;;;20.61;44.19
69411;BME280;56604;48.652;9.194;2023-05-15T12:15:00;95721.38;;;20.67;45.16
69411;BME280;56604;48.652;9.194;2023-05-15T12:17:25;95718.78;;;20.50;44.00
69411;BME280;56604;48.652;9.194;2023-05-15T12:19:52;95719.66;;;20.84;43.54
69411;BME280;56604;48.652;9.194;2023-05-15T12:22:17;95711.16;;;21.03;43.26
69411;BME280;56604;48.652;9.194;2023-05-15T12:24:44;95710.13;;;20.95;44.67
69411;BME280;56604;48.652;9.194;2023-05-15T12:27:10;95716.66;;;21.19;43.82
69411;BME280;56604;48.652;9.194;2023-05-15T12:29:38;95712.22;;;20.89;43.53
69411;BME280;56604;48.652;9.194;2023-05-15T12:32:04;95710.16;;;21.07;43.52
69411;BME280;56604;48.652;9.194;2023-05-15T12:34:31;95707.63;;;21.56;43.79
69411;BME280;56604;48.652;9.194;2023-05-15T12:36:57;95717.09;;;21.54;44.20
69411;BME280;56604;48.652;9.194;2023-05-15T12:39:24;95716.50;;;22.06;41.42
69411;BME280;56604;48.652;9.194;2023-05-15T12:41:50;95710.91;;;22.23;41.93
69411;BME280;56604;48.652;9.194;2023-05-15T12:44:19;95709.66;;;22.33;38.81
69411;BME280;56604;48.652;9.194;2023-05-15T12:46:45;95706.88;;;22.05;37.60
69411;BME280;56604;48.652;9.194;2023-05-15T12:49:10;95705.91;;;20.73;46.80
69411;BME280;56604;48.652;9.194;2023-05-15T12:51:42;95705.00;;;20.90;48.33
69411;BME280;56604;48.652;9.194;2023-05-15T12:54:18;95717.66;;;20.81;48.79
69411;BME280;56604;48.652;9.194;2023-05-15T12:56:43;95708.91;;;20.72;48.71
69411;BME280;56604;48.652;9.194;2023-05-15T12:59:10;95712.66;;;20.29;49.79
69411;BME280;56604;48.652;9.194;2023-05-15T13:01:35;95719.09;;;20.28;49.87
69411;BME280;56604;48.652;9.194;2023-05-15T13:04:01;95707.84;;;20.43;49.96
69411;BME280;56604;48.652;9.194;2023-05-15T13:06:27;95709.25;;;20.19;51.09
69411;BME280;56604;48.652;9.194;2023-05-15T13:08:53;95704.84;;;20.24;52.20
69411;BME280;56604;48.652;9.194;2023-05-15T13:11:18;95707.81;;;20.01;53.91
69411;BME280;56604;48.652;9.194;2023-05-15T13:13:51;95698.56;;;20.19;52.77
69411;BME280;56604;48.652;9.194;2023-05-15T13:16:22;95700.19;;;20.62;51.68
69411;BME280;56604;48.652;9.194;2023-05-15T13:18:48;95698.50;;;20.79;51.72
69411;BME280;56604;48.652;9.194;2023-05-15T13:21:13;95697.44;;;20.92;52.89
69411;BME280;56604;48.652;9.194;2023-05-15T13:23:39;95688.84;;;20.86;51.55
69411;BME280;56604;48.652;9.194;2023-05-15T13:26:04;95687.31;;;20.14;53.65
69411;BME280;56604;48.652;9.194;2023-05-15T13:28:29;95697.31;;;19.96;52.53
69411;BME280;56604;48.652;9.194;2023-05-15T13:30:54;95702.91;;;19.73;54.30
69411;BME280;56604;48.652;9.194;2023-05-15T13:33:20;95709.56;;;19.50;55.00